sensor_id;sensor_type;location;lat;lon;timestamp;P1;durP1;ratioP1;P2;durP2;ratioP2
76900;SDS011;65859;43.020;25.096;2023-06-10T00:01:03;7.63;;;4.57;;
76900;SDS011;65859;43.020;25.096;2023-06-10T00:03:29;8.90;;;5.10;;
76900;SDS011;65859;43.020;25.096;2023-06-10T00:05:56;7.63;;;5.00;;
76900;SDS011;65859;43.020;25.096;2023-06-10T00:08:22;9.02;;;4.57;;
76900;SDS011;65859;43.020;25.096;2023-06-10T00:10:49;12.40;;;4.68;;
76900;SDS011;65859;43.020;25.096;2023-06-10T00:13:15;8.80;;;4.75;;
76900;SDS011;65859;43.020;25.096;2023-06-10T00:15:42;8.90;;;4.88;;
76900;SDS011;65859;43.020;25.096;2023-06-10T00:18:08;12.93;;;4.80;;
76900;SDS011;65859;43.020;25.096;2023-06-10T00:20:35;11.25;;;5.28;;
76900;SDS011;65859;43.020;25.096;2023-06-10T00:23:02;12.75;;;4.82;;
76900;SDS011;65859;43.020;25.096;2023-06-10T00:25:31;11.95;;;4.85;;
76900;SDS011;65859;43.020;25.096;2023-06-10T00:27:58;11.05;;;4.50;;
76900;SDS011;65859;43.020;25.096;2023-06-10T00:30:26;8.40;;;4.32;;
76900;SDS011;65859;43.020;25.096;2023-06-10T00:32:53;11.07;;;5.03;;
76900;SDS011;65859;43.020;25.096;2023-06-10T00:35:19;8.98;;;4.25;;
76900;SDS011;65859;43.020;25.096;2023-06-10T00:37:45;7.95;;;4.50;;
76900;SDS011;65859;43.020;25.096;2023-06-10T00:40:12;9.80;;;4.47;;
76900;SDS011;65859;43.020;25.096;2023-06-10T00:42:38;6.40;;;4.32;;
76900;SDS011;65859;43.020;25.096;2023-06-10T00:45:05;9.68;;;4.72;;
76900;SDS011;65859;43.020;25.096;2023-06-10T00:47:32;9.60;;;4.65;;
76900;SDS011;65859;43.020;25.096;2023-06-10T00:50:00;11.07;;;4.60;;
76900;SDS011;65859;43.020;25.096;2023-06-10T00:52:27;9.20;;;5.53;;
76900;SDS011;65859;43.020;25.096;2023-06-10T00:54:55;9.55;;;4.63;;
76900;SDS011;65859;43.020;25.096;2023-06-10T00:57:22;7.75;;;4.63;;
76900;SDS011;65859;43.020;25.096;2023-06-10T00:59:48;7.22;;;4.45;;
76900;SDS011;65859;43.020;25.096;2023-06-10T01:02:16;14.27;;;4.45;;
76900;SDS011;65859;43.020;25.096;2023-06-10T01:04:43;6.32;;;4.50;;
76900;SDS011;65859;43.020;25.096;2023-06-10T01:12:47;6.47;;;4.53;;
76900;SDS011;65859;43.020;25.096;2023-06-10T01:15:22;7.90;;;4.55;;
76900;SDS011;65859;43.020;25.096;2023-06-10T01:20:31;9.38;;;5.07;;
76900;SDS011;65859;43.020;25.096;2023-06-10T01:22:58;8.00;;;4.50;;
76900;SDS011;65859;43.020;25.096;2023-06-10T01:25:26;8.07;;;4.63;;
76900;SDS011;65859;43.020;25.096;2023-06-10T01:28:02;8.98;;;4.68;;
76900;SDS011;65859;43.020;25.096;2023-06-10T01:30:38;7.75;;;4.70;;
76900;SDS011;65859;43.020;25.096;2023-06-10T01:33:23;8.70;;;4.50;;
76900;SDS011;65859;43.020;25.096;2023-06-10T01:35:59;8.35;;;4.43;;
76900;SDS011;65859;43.020;25.096;2023-06-10T01:38:27;10.48;;;4.35;;
76900;SDS011;65859;43.020;25.096;2023-06-10T01:40:55;10.25;;;5.13;;
76900;SDS011;65859;43.020;25.096;2023-06-10T01:43:22;7.80;;;4.38;;
76900;SDS011;65859;43.020;25.096;2023-06-10T01:45:49;10.32;;;4.45;;
76900;SDS011;65859;43.020;25.096;2023-06-10T01:48:16;10.70;;;4.97;;
76900;SDS011;65859;43.020;25.096;2023-06-10T01:50:42;9.27;;;4.72;;
76900;SDS011;65859;43.020;25.096;2023-06-10T01:53:09;6.82;;;4.50;;
76900;SDS011;65859;43.020;25.096;2023-06-10T01:55:35;10.45;;;5.00;;
76900;SDS011;65859;43.020;25.096;2023-06-10T01:58:01;7.60;;;5.18;;
76900;SDS011;65859;43.020;25.096;2023-06-10T02:00:27;15.05;;;5.30;;
76900;SDS011;65859;43.020;25.096;2023-06-10T02:02:54;7.57;;;4.53;;
76900;SDS011;65859;43.020;25.096;2023-06-10T02:05:22;12.98;;;4.97;;
76900;SDS011;65859;43.020;25.096;2023-06-10T02:07:48;8.95;;;5.55;;
76900;SDS011;65859;43.020;25.096;2023-06-10T02:10:15;10.25;;;5.20;;
76900;SDS011;65859;43.020;25.096;2023-06-10T02:12:41;10.13;;;4.97;;
76900;SDS011;65859;43.020;25.096;2023-06-10T02:15:07;11.65;;;5.20;;
76900;SDS011;65859;43.020;25.096;2023-06-10T02:17:33;8.85;;;5.28;;
76900;SDS011;65859;43.020;25.096;2023-06-10T02:20:00;12.00;;;5.05;;
76900;SDS011;65859;43.020;25.096;2023-06-10T02:22:31;9.65;;;5.18;;
76900;SDS011;65859;43.020;25.096;2023-06-10T02:24:58;12.25;;;4.63;;
76900;SDS011;65859;43.020;25.096;2023-06-10T02:27:24;11.32;;;4.35;;
76900;SDS011;65859;43.020;25.096;2023-06-10T02:29:51;8.30;;;4.70;;
76900;SDS011;65859;43.020;25.096;2023-06-10T02:32:17;6.40;;;4.65;;
76900;SDS011;65859;43.020;25.096;2023-06-10T02:34:43;6.43;;;4.20;;
76900;SDS011;65859;43.020;25.096;2023-06-10T02:37:10;8.25;;;4.50;;
76900;SDS011;65859;43.020;25.096;2023-06-10T02:39:37;8.40;;;4.93;;
76900;SDS011;65859;43.020;25.096;2023-06-10T02:42:03;9.88;;;4.68;;
76900;SDS011;65859;43.020;25.096;2023-06-10T02:44:30;9.07;;;4.90;;
76900;SDS011;65859;43.020;25.096;2023-06-10T02:46:56;11.73;;;4.38;;
76900;SDS011;65859;43.020;25.096;2023-06-10T02:49:23;6.22;;;4.05;;
76900;SDS011;65859;43.020;25.096;2023-06-10T02:51:50;14.98;;;5.20;;
76900;SDS011;65859;43.020;25.096;2023-06-10T02:54:19;7.35;;;4.63;;
76900;SDS011;65859;43.020;25.096;2023-06-10T02:56:46;10.65;;;4.82;;
76900;SDS011;65859;43.020;25.096;2023-06-10T02:59:13;9.73;;;4.80;;
76900;SDS011;65859;43.020;25.096;2023-06-10T03:01:39;7.25;;;4.80;;
76900;SDS011;65859;43.020;25.096;2023-06-10T03:04:07;9.23;;;4.82;;
76900;SDS011;65859;43.020;25.096;2023-06-10T03:06:34;7.55;;;4.95;;
76900;SDS011;65859;43.020;25.096;2023-06-10T03:09:01;8.73;;;4.43;;
76900;SDS011;65859;43.020;25.096;2023-06-10T03:11:32;7.60;;;5.00;;
76900;SDS011;65859;43.020;25.096;2023-06-10T03:13:58;7.97;;;5.32;;
76900;SDS011;65859;43.020;25.096;2023-06-10T03:16:25;12.60;;;4.85;;
76900;SDS011;65859;43.020;25.096;2023-06-10T03:18:52;10.02;;;5.90;;
76900;SDS011;65859;43.020;25.096;2023-06-10T03:21:19;10.27;;;5.18;;
76900;SDS011;65859;43.020;25.096;2023-06-10T03:23:45;11.88;;;5.63;;
76900;SDS011;65859;43.020;25.096;2023-06-10T03:26:11;6.43;;;4.65;;
76900;SDS011;65859;43.020;25.096;2023-06-10T03:28:39;12.85;;;5.65;;
76900;SDS011;65859;43.020;25.096;2023-06-10T03:31:05;7.38;;;5.32;;
76900;SDS011;65859;43.020;25.096;2023-06-10T03:33:32;9.10;;;5.03;;
76900;SDS011;65859;43.020;25.096;2023-06-10T03:35:58;8.75;;;4.63;;
76900;SDS011;65859;43.020;25.096;2023-06-10T03:38:25;8.95;;;4.90;;
76900;SDS011;65859;43.020;25.096;2023-06-10T03:40:51;10.20;;;4.90;;
76900;SDS011;65859;43.020;25.096;2023-06-10T03:43:17;7.57;;;4.90;;
76900;SDS011;65859;43.020;25.096;2023-06-10T03:45:45;8.40;;;5.50;;
76900;SDS011;65859;43.020;25.096;2023-06-10T03:48:11;7.05;;;4.95;;
76900;SDS011;65859;43.020;25.096;2023-06-10T03:50:37;8.93;;;4.68;;
76900;SDS011;65859;43.020;25.096;2023-06-10T03:53:04;9.48;;;4.93;;
76900;SDS011;65859;43.020;25.096;2023-06-10T03:55:30;7.78;;;4.60;;
76900;SDS011;65859;43.020;25.096;2023-06-10T03:57:57;8.85;;;4.68;;
76900;SDS011;65859;43.020;25.096;2023-06-10T04:00:24;9.88;;;4.80;;
76900;SDS011;65859;43.020;25.096;2023-06-10T04:02:50;7.53;;;5.05;;
76900;SDS011;65859;43.020;25.096;2023-06-10T04:05:17;7.32;;;4.53;;
76900;SDS011;65859;43.020;25.096;2023-06-10T04:07:47;7.53;;;4.90;;
76900;SDS011;65859;43.020;25.096;2023-06-10T04:10:14;9.90;;;4.53;;
76900;SDS011;65859;43.020;25.096;2023-06-10T04:12:41;10.88;;;5.18;;
76900;SDS011;65859;43.020;25.096;2023-06-10T04:15:07;7.30;;;5.00;;
76900;SDS011;65859;43.020;25.096;2023-06-10T04:17:34;9.18;;;5.22;;
76900;SDS011;65859;43.020;25.096;2023-06-10T04:20:00;8.25;;;5.07;;
76900;SDS011;65859;43.020;25.096;2023-06-10T04:22:28;10.40;;;5.22;;
76900;SDS011;65859;43.020;25.096;2023-06-10T04:24:55;8.18;;;5.05;;
76900;SDS011;65859;43.020;25.096;2023-06-10T04:27:21;13.27;;;5.20;;
76900;SDS011;65859;43.020;25.096;2023-06-10T04:29:49;8.23;;;5.40;;
76900;SDS011;65859;43.020;25.096;2023-06-10T04:32:15;8.45;;;4.80;;
76900;SDS011;65859;43.020;25.096;2023-06-10T04:34:41;8.82;;;5.20;;
76900;SDS011;65859;43.020;25.096;2023-06-10T04:37:08;8.73;;;5.32;;
76900;SDS011;65859;43.020;25.096;2023-06-10T04:39:34;8.60;;;5.40;;
76900;SDS011;65859;43.020;25.096;2023-06-10T04:42:00;8.48;;;5.70;;
76900;SDS011;65859;43.020;25.096;2023-06-10T04:44:27;8.65;;;5.40;;
76900;SDS011;65859;43.020;25.096;2023-06-10T04:46:54;7.13;;;4.53;;
76900;SDS011;65859;43.020;25.096;2023-06-10T04:49:20;10.27;;;5.38;;
76900;SDS011;65859;43.020;25.096;2023-06-10T04:51:47;12.35;;;5.13;;
76900;SDS011;65859;43.020;25.096;2023-06-10T04:54:13;11.77;;;5.50;;
76900;SDS011;65859;43.020;25.096;2023-06-10T04:56:40;10.77;;;5.60;;
76900;SDS011;65859;43.020;25.096;2023-06-10T04:59:07;13.13;;;6.05;;
76900;SDS011;65859;43.020;25.096;2023-06-10T05:01:34;13.05;;;5.40;;
76900;SDS011;65859;43.020;25.096;2023-06-10T05:04:01;8.15;;;5.50;;
76900;SDS011;65859;43.020;25.096;2023-06-10T05:06:27;13.35;;;5.78;;
76900;SDS011;65859;43.020;25.096;2023-06-10T05:08:54;13.07;;;6.50;;
76900;SDS011;65859;43.020;25.096;2023-06-10T05:11:20;13.43;;;6.55;;
76900;SDS011;65859;43.020;25.096;2023-06-10T05:13:47;15.75;;;6.03;;
76900;SDS011;65859;43.020;25.096;2023-06-10T05:16:14;13.25;;;6.00;;
76900;SDS011;65859;43.020;25.096;2023-06-10T05:18:40;13.95;;;6.55;;
76900;SDS011;65859;43.020;25.096;2023-06-10T05:21:06;10.98;;;5.93;;
76900;SDS011;65859;43.020;25.096;2023-06-10T05:23:33;10.88;;;5.63;;
76900;SDS011;65859;43.020;25.096;2023-06-10T05:25:59;21.40;;;5.97;;
76900;SDS011;65859;43.020;25.096;2023-06-10T05:28:25;10.88;;;6.32;;
76900;SDS011;65859;43.020;25.096;2023-06-10T05:30:52;15.50;;;6.55;;
76900;SDS011;65859;43.020;25.096;2023-06-10T05:33:18;12.32;;;6.05;;
76900;SDS011;65859;43.020;25.096;2023-06-10T05:35:44;9.73;;;5.40;;
76900;SDS011;65859;43.020;25.096;2023-06-10T05:38:11;7.63;;;5.00;;
76900;SDS011;65859;43.020;25.096;2023-06-10T05:40:37;9.02;;;5.05;;
76900;SDS011;65859;43.020;25.096;2023-06-10T05:43:03;7.70;;;5.15;;
76900;SDS011;65859;43.020;25.096;2023-06-10T05:45:29;8.82;;;5.85;;
76900;SDS011;65859;43.020;25.096;2023-06-10T05:47:56;7.05;;;5.50;;
76900;SDS011;65859;43.020;25.096;2023-06-10T05:50:23;7.30;;;5.28;;
76900;SDS011;65859;43.020;25.096;2023-06-10T05:52:50;7.80;;;6.07;;
76900;SDS011;65859;43.020;25.096;2023-06-10T05:55:18;12.43;;;6.22;;
76900;SDS011;65859;43.020;25.096;2023-06-10T05:57:44;12.13;;;7.07;;
76900;SDS011;65859;43.020;25.096;2023-06-10T06:00:11;12.55;;;6.88;;
76900;SDS011;65859;43.020;25.096;2023-06-10T06:02:38;9.05;;;6.38;;
76900;SDS011;65859;43.020;25.096;2023-06-10T06:05:06;8.82;;;5.43;;
76900;SDS011;65859;43.020;25.096;2023-06-10T06:07:33;7.07;;;4.80;;
76900;SDS011;65859;43.020;25.096;2023-06-10T06:09:59;8.90;;;4.80;;
76900;SDS011;65859;43.020;25.096;2023-06-10T06:12:25;8.68;;;5.70;;
76900;SDS011;65859;43.020;25.096;2023-06-10T06:14:51;10.23;;;6.18;;
76900;SDS011;65859;43.020;25.096;2023-06-10T06:17:18;9.25;;;5.88;;
76900;SDS011;65859;43.020;25.096;2023-06-10T06:19:44;9.52;;;5.55;;
76900;SDS011;65859;43.020;25.096;2023-06-10T06:22:12;8.15;;;6.07;;
76900;SDS011;65859;43.020;25.096;2023-06-10T06:24:39;9.25;;;6.00;;
76900;SDS011;65859;43.020;25.096;2023-06-10T06:27:05;10.90;;;6.07;;
76900;SDS011;65859;43.020;25.096;2023-06-10T06:29:31;9.57;;;6.13;;
76900;SDS011;65859;43.020;25.096;2023-06-10T06:31:58;10.25;;;6.63;;
76900;SDS011;65859;43.020;25.096;2023-06-10T06:34:24;8.35;;;6.00;;
76900;SDS011;65859;43.020;25.096;2023-06-10T06:36:50;10.73;;;6.72;;
76900;SDS011;65859;43.020;25.096;2023-06-10T06:39:16;9.25;;;6.38;;
76900;SDS011;65859;43.020;25.096;2023-06-10T06:41:43;10.63;;;6.40;;
76900;SDS011;65859;43.020;25.096;2023-06-10T06:44:09;7.97;;;6.20;;
76900;SDS011;65859;43.020;25.096;2023-06-10T06:46:35;12.10;;;7.00;;
76900;SDS011;65859;43.020;25.096;2023-06-10T06:49:01;11.45;;;6.47;;
76900;SDS011;65859;43.020;25.096;2023-06-10T06:51:28;9.32;;;5.85;;
76900;SDS011;65859;43.020;25.096;2023-06-10T06:53:54;13.85;;;6.38;;
76900;SDS011;65859;43.020;25.096;2023-06-10T06:56:23;12.25;;;6.72;;
76900;SDS011;65859;43.020;25.096;2023-06-10T06:58:52;11.57;;;6.60;;
76900;SDS011;65859;43.020;25.096;2023-06-10T07:01:18;9.00;;;6.18;;
76900;SDS011;65859;43.020;25.096;2023-06-10T07:03:44;7.40;;;5.97;;
76900;SDS011;65859;43.020;25.096;2023-06-10T07:06:12;10.57;;;6.18;;
76900;SDS011;65859;43.020;25.096;2023-06-10T07:08:38;12.48;;;6.22;;
76900;SDS011;65859;43.020;25.096;2023-06-10T07:11:05;10.27;;;6.82;;
76900;SDS011;65859;43.020;25.096;2023-06-10T07:13:31;9.27;;;6.82;;
76900;SDS011;65859;43.020;25.096;2023-06-10T07:15:57;8.32;;;6.82;;
76900;SDS011;65859;43.020;25.096;2023-06-10T07:18:24;12.23;;;6.82;;
76900;SDS011;65859;43.020;25.096;2023-06-10T07:20:50;13.18;;;9.80;;
76900;SDS011;65859;43.020;25.096;2023-06-10T07:23:16;12.70;;;8.07;;
76900;SDS011;65859;43.020;25.096;2023-06-10T07:25:42;11.38;;;6.75;;
76900;SDS011;65859;43.020;25.096;2023-06-10T07:28:09;12.52;;;7.25;;
76900;SDS011;65859;43.020;25.096;2023-06-10T07:30:35;12.80;;;7.47;;
76900;SDS011;65859;43.020;25.096;2023-06-10T07:33:01;12.32;;;7.07;;
76900;SDS011;65859;43.020;25.096;2023-06-10T07:35:27;10.90;;;7.07;;
76900;SDS011;65859;43.020;25.096;2023-06-10T07:37:55;9.77;;;7.00;;
76900;SDS011;65859;43.020;25.096;2023-06-10T07:40:22;10.60;;;7.60;;
76900;SDS011;65859;43.020;25.096;2023-06-10T07:42:49;11.07;;;7.32;;
76900;SDS011;65859;43.020;25.096;2023-06-10T07:45:15;11.50;;;7.32;;
76900;SDS011;65859;43.020;25.096;2023-06-10T07:47:44;10.38;;;6.25;;
76900;SDS011;65859;43.020;25.096;2023-06-10T07:50:10;10.32;;;7.22;;
76900;SDS011;65859;43.020;25.096;2023-06-10T07:52:37;9.68;;;7.43;;
76900;SDS011;65859;43.020;25.096;2023-06-10T07:55:04;10.43;;;8.00;;
76900;SDS011;65859;43.020;25.096;2023-06-10T07:57:30;10.55;;;7.50;;
76900;SDS011;65859;43.020;25.096;2023-06-10T07:59:59;11.82;;;7.57;;
76900;SDS011;65859;43.020;25.096;2023-06-10T08:02:28;11.18;;;7.80;;
76900;SDS011;65859;43.020;25.096;2023-06-10T08:04:54;9.20;;;7.05;;
76900;SDS011;65859;43.020;25.096;2023-06-10T08:07:20;10.52;;;7.07;;
76900;SDS011;65859;43.020;25.096;2023-06-10T08:09:48;10.98;;;7.50;;
76900;SDS011;65859;43.020;25.096;2023-06-10T08:12:14;11.00;;;7.10;;
76900;SDS011;65859;43.020;25.096;2023-06-10T08:14:41;11.98;;;7.05;;
76900;SDS011;65859;43.020;25.096;2023-06-10T08:17:07;9.63;;;7.07;;
76900;SDS011;65859;43.020;25.096;2023-06-10T08:19:33;10.15;;;8.18;;
76900;SDS011;65859;43.020;25.096;2023-06-10T08:21:59;10.70;;;7.40;;
76900;SDS011;65859;43.020;25.096;2023-06-10T08:24:26;10.90;;;8.50;;
76900;SDS011;65859;43.020;25.096;2023-06-10T08:26:52;14.80;;;8.15;;
76900;SDS011;65859;43.020;25.096;2023-06-10T08:29:20;11.45;;;8.73;;
76900;SDS011;65859;43.020;25.096;2023-06-10T08:31:46;10.23;;;7.78;;
76900;SDS011;65859;43.020;25.096;2023-06-10T08:34:12;13.38;;;7.18;;
76900;SDS011;65859;43.020;25.096;2023-06-10T08:36:39;9.93;;;7.53;;
76900;SDS011;65859;43.020;25.096;2023-06-10T08:39:05;11.57;;;8.45;;
76900;SDS011;65859;43.020;25.096;2023-06-10T08:41:35;10.30;;;8.13;;
76900;SDS011;65859;43.020;25.096;2023-06-10T08:47:10;12.68;;;6.82;;
76900;SDS011;65859;43.020;25.096;2023-06-10T08:49:43;9.52;;;6.78;;
76900;SDS011;65859;43.020;25.096;2023-06-10T08:52:15;8.25;;;6.80;;
76900;SDS011;65859;43.020;25.096;2023-06-10T08:54:52;9.38;;;6.50;;
76900;SDS011;65859;43.020;25.096;2023-06-10T08:57:25;6.53;;;5.85;;
76900;SDS011;65859;43.020;25.096;2023-06-10T08:59:55;6.63;;;5.72;;
76900;SDS011;65859;43.020;25.096;2023-06-10T09:02:23;9.43;;;4.80;;
76900;SDS011;65859;43.020;25.096;2023-06-10T09:04:50;7.65;;;5.50;;
76900;SDS011;65859;43.020;25.096;2023-06-10T09:07:17;7.15;;;5.03;;
76900;SDS011;65859;43.020;25.096;2023-06-10T09:09:44;5.40;;;4.60;;
76900;SDS011;65859;43.020;25.096;2023-06-10T09:12:14;6.72;;;4.70;;
76900;SDS011;65859;43.020;25.096;2023-06-10T09:14:41;5.57;;;4.38;;
76900;SDS011;65859;43.020;25.096;2023-06-10T09:17:08;5.80;;;4.40;;
76900;SDS011;65859;43.020;25.096;2023-06-10T09:19:35;7.25;;;4.55;;
76900;SDS011;65859;43.020;25.096;2023-06-10T09:22:03;5.50;;;4.20;;
76900;SDS011;65859;43.020;25.096;2023-06-10T09:24:29;6.80;;;4.70;;
76900;SDS011;65859;43.020;25.096;2023-06-10T09:27:07;5.68;;;4.22;;
76900;SDS011;65859;43.020;25.096;2023-06-10T09:29:53;9.23;;;4.18;;
76900;SDS011;65859;43.020;25.096;2023-06-10T09:32:20;6.68;;;4.50;;
76900;SDS011;65859;43.020;25.096;2023-06-10T09:34:46;6.40;;;3.90;;
76900;SDS011;65859;43.020;25.096;2023-06-10T09:37:19;7.30;;;4.00;;
76900;SDS011;65859;43.020;25.096;2023-06-10T09:40:00;5.88;;;4.38;;
76900;SDS011;65859;43.020;25.096;2023-06-10T09:42:33;4.00;;;3.60;;
76900;SDS011;65859;43.020;25.096;2023-06-10T09:45:00;3.88;;;3.38;;
76900;SDS011;65859;43.020;25.096;2023-06-10T09:47:30;4.70;;;3.83;;
76900;SDS011;65859;43.020;25.096;2023-06-10T09:49:57;8.27;;;3.42;;
76900;SDS011;65859;43.020;25.096;2023-06-10T09:52:23;6.47;;;3.58;;
76900;SDS011;65859;43.020;25.096;2023-06-10T09:54:52;6.65;;;3.33;;
76900;SDS011;65859;43.020;25.096;2023-06-10T09:57:19;5.43;;;3.80;;
76900;SDS011;65859;43.020;25.096;2023-06-10T09:59:47;6.95;;;3.88;;
76900;SDS011;65859;43.020;25.096;2023-06-10T10:02:17;4.63;;;3.35;;
76900;SDS011;65859;43.020;25.096;2023-06-10T10:04:44;5.30;;;3.97;;
76900;SDS011;65859;43.020;25.096;2023-06-10T10:07:11;5.93;;;4.10;;
76900;SDS011;65859;43.020;25.096;2023-06-10T10:09:41;3.95;;;3.20;;
76900;SDS011;65859;43.020;25.096;2023-06-10T10:14:35;4.72;;;3.40;;
76900;SDS011;65859;43.020;25.096;2023-06-10T10:17:04;5.35;;;3.85;;
76900;SDS011;65859;43.020;25.096;2023-06-10T10:19:48;9.18;;;3.92;;
76900;SDS011;65859;43.020;25.096;2023-06-10T10:22:20;5.00;;;3.53;;
76900;SDS011;65859;43.020;25.096;2023-06-10T10:24:59;9.07;;;4.07;;
76900;SDS011;65859;43.020;25.096;2023-06-10T10:27:35;6.82;;;4.07;;
76900;SDS011;65859;43.020;25.096;2023-06-10T10:30:08;5.85;;;3.72;;
76900;SDS011;65859;43.020;25.096;2023-06-10T10:32:42;7.63;;;3.83;;
76900;SDS011;65859;43.020;25.096;2023-06-10T10:35:30;4.13;;;3.60;;
76900;SDS011;65859;43.020;25.096;2023-06-10T10:37:58;5.78;;;3.65;;
76900;SDS011;65859;43.020;25.096;2023-06-10T10:40:25;3.70;;;3.38;;
76900;SDS011;65859;43.020;25.096;2023-06-10T10:42:55;7.10;;;3.50;;
76900;SDS011;65859;43.020;25.096;2023-06-10T10:45:23;8.48;;;3.78;;
76900;SDS011;65859;43.020;25.096;2023-06-10T10:47:52;7.78;;;3.67;;
76900;SDS011;65859;43.020;25.096;2023-06-10T10:50:21;5.95;;;3.50;;
76900;SDS011;65859;43.020;25.096;2023-06-10T10:55:19;7.32;;;4.03;;
76900;SDS011;65859;43.020;25.096;2023-06-10T10:57:52;7.57;;;4.15;;
76900;SDS011;65859;43.020;25.096;2023-06-10T11:00:27;7.13;;;3.78;;
76900;SDS011;65859;43.020;25.096;2023-06-10T11:05:35;6.50;;;4.30;;
76900;SDS011;65859;43.020;25.096;2023-06-10T11:08:07;4.60;;;3.70;;
76900;SDS011;65859;43.020;25.096;2023-06-10T11:10:35;5.97;;;3.50;;
76900;SDS011;65859;43.020;25.096;2023-06-10T11:13:06;5.10;;;3.40;;
76900;SDS011;65859;43.020;25.096;2023-06-10T11:18:25;6.13;;;3.72;;
76900;SDS011;65859;43.020;25.096;2023-06-10T11:21:01;7.93;;;3.45;;
76900;SDS011;65859;43.020;25.096;2023-06-10T11:28:37;7.55;;;4.30;;
76900;SDS011;65859;43.020;25.096;2023-06-10T11:31:04;8.55;;;4.20;;
76900;SDS011;65859;43.020;25.096;2023-06-10T11:33:31;7.03;;;4.10;;
76900;SDS011;65859;43.020;25.096;2023-06-10T11:35:58;4.70;;;4.03;;
76900;SDS011;65859;43.020;25.096;2023-06-10T11:38:24;6.30;;;4.47;;
76900;SDS011;65859;43.020;25.096;2023-06-10T11:40:51;6.32;;;4.18;;
76900;SDS011;65859;43.020;25.096;2023-06-10T11:43:18;9.32;;;4.55;;
76900;SDS011;65859;43.020;25.096;2023-06-10T11:45:46;12.00;;;3.97;;
76900;SDS011;65859;43.020;25.096;2023-06-10T11:48:12;5.10;;;3.40;;
76900;SDS011;65859;43.020;25.096;2023-06-10T11:50:39;5.53;;;3.78;;
76900;SDS011;65859;43.020;25.096;2023-06-10T11:53:07;4.80;;;3.17;;
76900;SDS011;65859;43.020;25.096;2023-06-10T11:55:47;7.40;;;3.15;;
76900;SDS011;65859;43.020;25.096;2023-06-10T11:58:19;6.20;;;3.75;;
76900;SDS011;65859;43.020;25.096;2023-06-10T12:00:47;7.07;;;4.00;;
76900;SDS011;65859;43.020;25.096;2023-06-10T12:03:14;4.45;;;3.22;;
76900;SDS011;65859;43.020;25.096;2023-06-10T12:06:00;4.07;;;3.22;;
76900;SDS011;65859;43.020;25.096;2023-06-10T12:08:29;6.47;;;3.60;;
76900;SDS011;65859;43.020;25.096;2023-06-10T12:10:56;6.55;;;3.42;;
76900;SDS011;65859;43.020;25.096;2023-06-10T12:13:23;7.22;;;3.80;;
76900;SDS011;65859;43.020;25.096;2023-06-10T12:15:54;5.75;;;3.85;;
76900;SDS011;65859;43.020;25.096;2023-06-10T12:18:30;5.50;;;4.03;;
76900;SDS011;65859;43.020;25.096;2023-06-10T12:20:57;6.40;;;4.63;;
76900;SDS011;65859;43.020;25.096;2023-06-10T12:23:23;7.63;;;6.28;;
76900;SDS011;65859;43.020;25.096;2023-06-10T12:25:50;5.60;;;4.40;;
76900;SDS011;65859;43.020;25.096;2023-06-10T12:28:20;5.72;;;3.80;;
76900;SDS011;65859;43.020;25.096;2023-06-10T12:30:51;7.97;;;4.30;;
76900;SDS011;65859;43.020;25.096;2023-06-10T12:33:33;4.43;;;3.47;;
76900;SDS011;65859;43.020;25.096;2023-06-10T12:35:59;5.55;;;3.58;;
76900;SDS011;65859;43.020;25.096;2023-06-10T12:38:25;7.32;;;3.80;;
76900;SDS011;65859;43.020;25.096;2023-06-10T12:41:04;8.23;;;4.03;;
76900;SDS011;65859;43.020;25.096;2023-06-10T12:43:31;11.18;;;4.15;;
76900;SDS011;65859;43.020;25.096;2023-06-10T12:46:09;6.10;;;3.80;;
76900;SDS011;65859;43.020;25.096;2023-06-10T12:48:36;8.45;;;3.75;;
76900;SDS011;65859;43.020;25.096;2023-06-10T12:51:16;8.85;;;3.53;;
76900;SDS011;65859;43.020;25.096;2023-06-10T12:53:43;10.80;;;3.70;;
76900;SDS011;65859;43.020;25.096;2023-06-10T12:56:09;6.38;;;3.75;;
76900;SDS011;65859;43.020;25.096;2023-06-10T12:58:36;5.40;;;3.47;;
76900;SDS011;65859;43.020;25.096;2023-06-10T13:01:02;6.80;;;3.90;;
76900;SDS011;65859;43.020;25.096;2023-06-10T13:03:29;5.28;;;3.10;;
76900;SDS011;65859;43.020;25.096;2023-06-10T13:05:55;6.15;;;3.65;;
76900;SDS011;65859;43.020;25.096;2023-06-10T13:08:22;5.72;;;3.20;;
76900;SDS011;65859;43.020;25.096;2023-06-10T13:10:48;5.10;;;3.60;;
76900;SDS011;65859;43.020;25.096;2023-06-10T13:13:14;5.15;;;3.25;;
76900;SDS011;65859;43.020;25.096;2023-06-10T13:15:41;6.85;;;3.50;;
76900;SDS011;65859;43.020;25.096;2023-06-10T13:18:08;5.90;;;3.72;;
76900;SDS011;65859;43.020;25.096;2023-06-10T13:20:34;9.52;;;4.07;;
76900;SDS011;65859;43.020;25.096;2023-06-10T13:23:01;5.88;;;3.60;;
76900;SDS011;65859;43.020;25.096;2023-06-10T13:25:27;5.30;;;3.65;;
76900;SDS011;65859;43.020;25.096;2023-06-10T13:27:53;5.72;;;3.65;;
76900;SDS011;65859;43.020;25.096;2023-06-10T13:30:20;8.93;;;5.53;;
76900;SDS011;65859;43.020;25.096;2023-06-10T13:32:46;8.25;;;3.90;;
76900;SDS011;65859;43.020;25.096;2023-06-10T13:35:13;9.40;;;3.60;;
76900;SDS011;65859;43.020;25.096;2023-06-10T13:37:39;4.15;;;3.50;;
76900;SDS011;65859;43.020;25.096;2023-06-10T13:40:05;5.95;;;3.80;;
76900;SDS011;65859;43.020;25.096;2023-06-10T13:42:32;5.82;;;3.15;;
76900;SDS011;65859;43.020;25.096;2023-06-10T13:45:01;7.35;;;3.53;;
76900;SDS011;65859;43.020;25.096;2023-06-10T13:47:28;5.70;;;3.70;;
76900;SDS011;65859;43.020;25.096;2023-06-10T13:49:55;5.38;;;3.45;;
76900;SDS011;65859;43.020;25.096;2023-06-10T13:52:22;6.47;;;3.35;;
76900;SDS011;65859;43.020;25.096;2023-06-10T13:54:48;6.22;;;3.60;;
76900;SDS011;65859;43.020;25.096;2023-06-10T13:57:15;8.73;;;3.55;;
76900;SDS011;65859;43.020;25.096;2023-06-10T13:59:41;6.25;;;3.92;;
76900;SDS011;65859;43.020;25.096;2023-06-10T14:02:08;7.32;;;3.15;;
76900;SDS011;65859;43.020;25.096;2023-06-10T14:04:35;6.53;;;3.40;;
76900;SDS011;65859;43.020;25.096;2023-06-10T14:07:01;5.25;;;3.70;;
76900;SDS011;65859;43.020;25.096;2023-06-10T14:09:27;6.07;;;3.30;;
76900;SDS011;65859;43.020;25.096;2023-06-10T14:11:54;7.85;;;3.60;;
76900;SDS011;65859;43.020;25.096;2023-06-10T14:14:20;7.32;;;3.60;;
76900;SDS011;65859;43.020;25.096;2023-06-10T14:16:47;10.57;;;4.20;;
76900;SDS011;65859;43.020;25.096;2023-06-10T14:19:14;4.88;;;3.65;;
76900;SDS011;65859;43.020;25.096;2023-06-10T14:21:42;9.35;;;3.80;;
76900;SDS011;65859;43.020;25.096;2023-06-10T14:24:08;9.80;;;3.95;;
76900;SDS011;65859;43.020;25.096;2023-06-10T14:26:34;4.90;;;3.78;;
76900;SDS011;65859;43.020;25.096;2023-06-10T14:29:00;7.32;;;3.30;;
76900;SDS011;65859;43.020;25.096;2023-06-10T14:31:27;7.55;;;4.13;;
76900;SDS011;65859;43.020;25.096;2023-06-10T14:33:53;9.73;;;4.07;;
76900;SDS011;65859;43.020;25.096;2023-06-10T14:36:20;5.40;;;3.90;;
76900;SDS011;65859;43.020;25.096;2023-06-10T14:38:46;8.35;;;4.43;;
76900;SDS011;65859;43.020;25.096;2023-06-10T14:41:12;9.70;;;4.20;;
76900;SDS011;65859;43.020;25.096;2023-06-10T14:43:39;5.60;;;4.05;;
76900;SDS011;65859;43.020;25.096;2023-06-10T14:46:05;4.53;;;4.03;;
76900;SDS011;65859;43.020;25.096;2023-06-10T14:48:31;6.45;;;3.90;;
76900;SDS011;65859;43.020;25.096;2023-06-10T14:50:58;14.95;;;5.28;;
76900;SDS011;65859;43.020;25.096;2023-06-10T14:53:24;7.18;;;4.00;;
76900;SDS011;65859;43.020;25.096;2023-06-10T14:55:51;7.70;;;3.70;;
76900;SDS011;65859;43.020;25.096;2023-06-10T14:58:17;7.18;;;4.00;;
76900;SDS011;65859;43.020;25.096;2023-06-10T15:00:43;8.70;;;3.63;;